Time;durP1;ratioP1;P1;durP2;ratioP2;P2;SDS_P1;SDS_P2;PMS_P1;PMS_P2;Temp;Humidity;BMP_temperature;BMP_pressure;BME280_temperature;BME280_humidity;BME280_pressure;Samples;Min_cycle;Max_cycle;Signal;HPM_P1;HPM_P2
2024/01/22 00:01:41;;;;;;;11.75;3.83;;;;;;;-146.27;88.70;41265.66;5068471;28;20028;-72
2024/01/22 00:04:07;;;;;;;4.63;2.58;;;;;;;-146.27;89.07;41323.31;5067650;28;20039;-73
2024/01/22 00:06:36;;;;;;;8.82;4.45;;;;;;;-146.27;88.20;41263.66;5069478;28;20029;-73
2024/01/22 00:09:02;;;;;;;8.05;3.90;;;;;;;-146.27;86.94;41229.88;5069454;28;20362;-73
2024/01/22 00:11:28;;;;;;;10.90;4.05;;;;;;;-146.27;87.67;41255.72;5071674;28;20107;-72
2024/01/22 00:13:53;;;;;;;6.28;3.45;;;;;;;-146.27;88.51;41275.59;5070551;28;20594;-73
2024/01/22 00:16:18;;;;;;;7.32;3.97;;;;;;;-146.27;87.70;41277.59;5066547;28;20557;-73
2024/01/22 00:18:44;;;;;;;7.63;3.97;;;;;;;-146.27;87.94;41237.81;5067668;28;20510;-73
2024/01/22 00:21:09;;;;;;;7.80;3.70;;;;;;;-146.27;87.02;41200.06;5071428;28;20043;-73
2024/01/22 00:23:35;;;;;;;7.55;4.25;;;;;;;-146.27;87.24;41251.75;5071202;28;20155;-72
2024/01/22 00:26:00;;;;;;;7.57;4.13;;;;;;;-146.27;86.92;41219.94;5070446;28;20041;-73
2024/01/22 00:28:25;;;;;;;9.98;3.83;;;;;;;-146.27;86.46;41192.09;5070373;28;20111;-73
2024/01/22 00:30:51;;;;;;;8.40;3.78;;;;;;;-146.27;87.33;41204.03;5070577;28;20021;-72
2024/01/22 00:33:16;;;;;;;10.13;3.67;;;;;;;-146.27;87.25;41253.72;5069978;28;20032;-72
2024/01/22 00:35:41;;;;;;;11.18;4.20;;;;;;;-146.27;86.97;41182.16;5066571;28;20123;-72
2024/01/22 00:38:07;;;;;;;8.32;3.90;;;;;;;-146.27;86.80;41196.06;5067935;28;20457;-72
2024/01/22 00:40:32;;;;;;;8.85;3.92;;;;;;;-146.27;86.94;41235.84;5069273;28;20028;-72
2024/01/22 00:42:57;;;;;;;6.65;2.90;;;;;;;-146.27;87.05;41219.94;5069859;28;20059;-72
2024/01/22 00:45:22;;;;;;;7.38;3.30;;;;;;;-146.27;87.28;41235.84;5059222;28;20538;-72
2024/01/22 00:47:48;;;;;;;6.97;3.88;;;;;;;-146.27;86.75;41140.41;5071039;28;20028;-73
2024/01/22 00:50:13;;;;;;;5.43;2.95;;;;;;;-146.27;86.65;41196.06;5067967;28;20021;-73
2024/01/22 00:52:38;;;;;;;7.15;3.45;;;;;;;-146.27;87.29;41180.16;5068815;28;20069;-72
2024/01/22 00:55:04;;;;;;;9.27;3.33;;;;;;;-146.27;87.00;41198.06;5061188;28;20436;-73
2024/01/22 00:57:29;;;;;;;7.32;3.17;;;;;;;-146.27;88.54;41176.19;5068416;28;20062;-73
2024/01/22 00:59:55;;;;;;;6.82;3.25;;;;;;;-146.27;89.23;41198.06;5068294;28;20498;-71
2024/01/22 01:02:20;;;;;;;7.63;3.65;;;;;;;-146.27;90.72;41178.19;5059195;28;20036;-73
2024/01/22 01:04:45;;;;;;;4.78;2.90;;;;;;;-146.27;91.56;41168.25;5068399;28;20338;-73
2024/01/22 01:07:12;;;;;;;13.75;3.92;;;;;;;-146.27;92.50;41128.47;5070457;28;20029;-73
2024/01/22 01:09:38;;;;;;;5.32;2.45;;;;;;;-146.27;93.11;41132.44;5068372;28;20389;-72
2024/01/22 01:12:04;;;;;;;14.20;4.20;;;;;;;-146.27;93.56;41072.81;5069894;28;20040;-72
2024/01/22 01:14:29;;;;;;;7.53;2.97;;;;;;;-146.27;93.33;41068.84;5070769;28;20085;-73
2024/01/22 01:16:55;;;;;;;7.13;2.88;;;;;;;-146.27;93.59;41092.69;5070568;28;20029;-73
2024/01/22 01:19:20;;;;;;;4.88;2.53;;;;;;;-146.27;92.55;41019.13;5068538;28;20024;-72
2024/01/22 01:21:46;;;;;;;8.32;3.03;;;;;;;-146.27;92.70;41029.06;5059772;28;20032;-72
2024/01/22 01:24:11;;;;;;;7.88;3.45;;;;;;;-146.27;92.80;40973.41;5068786;28;20392;-72
2024/01/22 01:26:43;;;;;;;7.88;3.03;;;;;;;-146.27;92.44;41009.19;5064164;28;20477;-73
2024/01/22 01:29:09;;;;;;;9.90;3.08;;;;;;;-146.27;92.92;41033.06;5066523;28;20032;-73
2024/01/22 01:31:34;;;;;;;6.57;2.50;;;;;;;-146.27;92.34;41013.16;5063055;28;20507;-72
2024/01/22 01:34:00;;;;;;;4.90;2.33;;;;;;;-146.27;91.86;40995.28;5060825;28;20060;-72
2024/01/22 01:36:25;;;;;;;4.38;2.78;;;;;;;-146.27;91.07;40943.59;5061473;28;20162;-73
2024/01/22 01:38:50;;;;;;;5.00;2.25;;;;;;;-146.27;91.07;41017.16;5065540;28;20028;-73
2024/01/22 01:41:16;;;;;;;7.80;2.13;;;;;;;-146.27;90.81;40899.84;5069470;28;20025;-72
2024/01/22 01:43:41;;;;;;;2.10;1.65;;;;;;;-146.27;90.98;41011.19;5070048;28;20028;-72
2024/01/22 01:46:07;;;;;;;5.88;2.25;;;;;;;-146.27;91.46;40953.53;5067869;28;20024;-73
2024/01/22 01:48:33;;;;;;;6.82;2.45;;;;;;;-146.27;91.81;40953.53;5069677;28;20031;-73
2024/01/22 01:51:00;;;;;;;6.03;2.30;;;;;;;-146.27;92.62;40925.69;5068626;28;20060;-72
2024/01/22 01:53:26;;;;;;;8.20;2.53;;;;;;;-146.27;92.02;40883.94;5061840;28;20024;-72
2024/01/22 01:55:52;;;;;;;4.57;2.15;;;;;;;-146.27;93.34;40925.69;5068007;28;20039;-72
2024/01/22 01:58:19;;;;;;;4.45;2.08;;;;;;;-146.27;94.27;40901.84;5069433;28;20021;-72
2024/01/22 02:00:51;;;;;;;8.73;2.72;;;;;;;-146.27;94.36;40870.03;5069972;28;20368;-72
2024/01/22 02:03:16;;;;;;;7.28;2.55;;;;;;;-146.27;94.91;40903.84;5068190;28;20028;-73
2024/01/22 02:05:41;;;;;;;6.28;2.60;;;;;;;-146.27;95.12;40919.75;5069458;28;20032;-72
2024/01/22 02:08:07;;;;;;;8.60;1.98;;;;;;;-146.27;94.54;40834.25;5069643;28;20028;-72
2024/01/22 02:10:32;;;;;;;8.52;2.55;;;;;;;-146.27;95.21;40850.16;5063480;28;20107;-72
2024/01/22 02:12:58;;;;;;;5.63;2.00;;;;;;;-146.27;95.57;40844.19;5065304;28;20610;-71
2024/01/22 02:15:23;;;;;;;6.10;2.28;;;;;;;-146.27;95.12;40798.47;5061779;28;20495;-72
2024/01/22 02:17:48;;;;;;;8.75;2.28;;;;;;;-146.27;95.75;40766.66;5063465;28;20358;-72
2024/01/22 02:20:14;;;;;;;10.90;2.40;;;;;;;-146.27;96.20;40804.44;5064510;28;20025;-73
2024/01/22 02:22:39;;;;;;;3.55;2.47;;;;;;;-146.27;97.03;40802.44;5068531;28;20155;-72
2024/01/22 02:25:05;;;;;;;3.05;1.88;;;;;;;-146.27;96.10;40818.34;5067365;28;20052;-73
2024/01/22 02:27:31;;;;;;;6.47;2.10;;;;;;;-146.27;96.36;40778.59;5068294;28;20027;-72
2024/01/22 02:29:56;;;;;;;6.60;2.15;;;;;;;-146.27;96.63;40826.31;5067709;28;20028;-73
2024/01/22 02:32:22;;;;;;;4.28;2.30;;;;;;;-146.27;95.90;40746.78;5065994;28;20039;-73
2024/01/22 02:34:47;;;;;;;4.15;1.95;;;;;;;-146.27;96.03;40756.72;5060536;28;20028;-73
2024/01/22 02:37:15;;;;;;;7.63;2.40;;;;;;;-146.27;96.22;40730.88;5068845;28;20024;-72
2024/01/22 02:39:41;;;;;;;2.97;1.60;;;;;;;-146.27;96.09;40758.72;5068230;28;20484;-73
2024/01/22 02:42:06;;;;;;;2.92;2.13;;;;;;;-146.27;95.03;40730.88;5066675;28;20082;-72
2024/01/22 02:44:34;;;;;;;2.67;1.80;;;;;;;-146.27;94.63;40683.19;5067147;28;20381;-73
2024/01/22 02:47:00;;;;;;;6.13;2.08;;;;;;;-146.27;94.05;40663.28;5065591;28;20024;-73
2024/01/22 02:49:27;;;;;;;7.00;1.80;;;;;;;-146.27;93.64;40663.28;5062902;28;20048;-73
2024/01/22 02:51:52;;;;;;;5.40;1.50;;;;;;;-146.27;93.73;40653.34;5057847;28;20023;-72
2024/01/22 02:54:17;;;;;;;4.68;1.60;;;;;;;-146.27;92.60;40615.59;5064545;28;20059;-73
2024/01/22 02:56:43;;;;;;;4.40;1.48;;;;;;;-146.27;92.24;40571.84;5068664;28;20032;-73
2024/01/22 02:59:08;;;;;;;5.55;1.48;;;;;;;-146.27;93.16;40621.56;5066997;28;20046;-73
2024/01/22 03:01:33;;;;;;;4.00;1.50;;;;;;;-146.27;94.05;40643.41;5063068;28;20031;-73
2024/01/22 03:03:59;;;;;;;4.22;1.67;;;;;;;-146.27;94.05;40625.53;5063223;28;20381;-72
2024/01/22 03:06:24;;;;;;;6.60;1.90;;;;;;;-146.27;93.83;40571.84;5064612;28;20193;-72
2024/01/22 03:08:49;;;;;;;3.63;1.63;;;;;;;-146.27;93.92;40585.78;5064809;28;20485;-72
2024/01/22 03:11:15;;;;;;;6.72;1.90;;;;;;;-146.27;94.00;40577.81;5068463;28;20050;-72
2024/01/22 03:13:40;;;;;;;2.55;1.50;;;;;;;-146.27;94.00;40538.06;5067282;28;20037;-73
2024/01/22 03:16:06;;;;;;;3.85;2.05;;;;;;;-146.27;95.23;40591.72;5068224;28;20032;-72
2024/01/22 03:18:32;;;;;;;2.65;1.50;;;;;;;-146.27;94.77;40593.72;5065095;28;20040;-72
2024/01/22 03:20:57;;;;;;;3.88;2.08;;;;;;;-146.27;94.21;40550.00;5064717;28;20029;-72
2024/01/22 03:23:23;;;;;;;1.42;1.30;;;;;;;-146.27;95.50;40567.88;5069694;28;20032;-72
2024/01/22 03:25:48;;;;;;;2.05;1.50;;;;;;;-146.27;94.97;40534.09;5069661;28;20037;-73
2024/01/22 03:28:13;;;;;;;3.50;1.67;;;;;;;-146.27;95.45;40548.00;5060513;28;20037;-72
2024/01/22 03:30:39;;;;;;;3.45;1.52;;;;;;;-146.27;95.06;40546.00;5068859;28;20115;-72
2024/01/22 03:33:04;;;;;;;2.05;1.40;;;;;;;-146.27;95.85;40599.69;5070528;28;20109;-72
2024/01/22 03:35:29;;;;;;;3.90;1.92;;;;;;;-146.27;95.93;40470.47;5071144;28;20028;-73
2024/01/22 03:37:55;;;;;;;2.72;1.77;;;;;;;-146.27;96.25;40454.59;5071926;28;20530;-72
2024/01/22 03:40:20;;;;;;;2.15;1.52;;;;;;;-146.27;97.27;40563.91;5071512;28;20500;-73
2024/01/22 03:42:45;;;;;;;1.50;1.40;;;;;;;-146.27;97.27;40540.06;5071956;28;20056;-73
2024/01/22 03:45:11;;;;;;;2.03;1.20;;;;;;;-146.27;97.32;40569.88;5069817;28;20117;-73
2024/01/22 03:47:37;;;;;;;3.72;1.50;;;;;;;-146.27;96.74;40448.63;5069950;28;20384;-73
2024/01/22 03:50:03;;;;;;;2.28;1.42;;;;;;;-146.27;96.95;40518.19;5071214;28;20024;-72
2024/01/22 03:52:28;;;;;;;1.45;1.35;;;;;;;-146.27;96.68;40492.34;5064009;28;20031;-72
2024/01/22 03:54:54;;;;;;;3.28;1.40;;;;;;;-146.27;97.40;40518.19;5071736;28;20273;-72
2024/01/22 03:57:19;;;;;;;4.03;1.63;;;;;;;-146.27;97.12;40416.81;5071893;28;20024;-72
2024/01/22 03:59:46;;;;;;;8.80;1.77;;;;;;;-146.27;97.48;40436.69;5059730;28;20488;-72
2024/01/22 04:02:11;;;;;;;0.77;0.77;;;;;;;-146.27;98.03;40504.28;5062784;28;20107;-74
2024/01/22 04:04:37;;;;;;;2.53;1.50;;;;;;;-146.27;97.38;40390.97;5072242;28;20096;-72
2024/01/22 04:07:03;;;;;;;1.38;1.20;;;;;;;-146.27;96.70;40365.13;5068150;28;20067;-72
2024/01/22 04:09:28;;;;;;;2.22;1.05;;;;;;;-146.27;97.70;40434.69;5067285;28;20446;-72
2024/01/22 04:11:53;;;;;;;3.60;1.67;;;;;;;-146.27;97.15;40361.16;5064617;28;20039;-72
2024/01/22 04:14:18;;;;;;;7.07;1.67;;;;;;;-146.27;97.62;40389.00;5070592;28;20103;-73
2024/01/22 04:16:44;;;;;;;2.92;1.70;;;;;;;-146.27;96.28;40281.66;5071595;28;20033;-72
2024/01/22 04:19:10;;;;;;;2.33;1.65;;;;;;;-146.27;96.52;40357.19;5069359;28;20043;-72
2024/01/22 04:21:44;;;;;;;2.70;1.63;;;;;;;-146.27;96.64;40315.44;5068949;28;20048;-72
2024/01/22 04:24:09;;;;;;;2.80;1.88;;;;;;;-146.27;96.67;40281.66;5058567;28;20021;-73
2024/01/22 04:26:34;;;;;;;2.88;1.67;;;;;;;-146.27;96.65;40315.44;5065163;28;20024;-73
2024/01/22 04:29:00;;;;;;;1.58;1.48;;;;;;;-146.27;95.33;40293.56;5059711;28;20056;-73
2024/01/22 04:31:25;;;;;;;2.60;1.73;;;;;;;-146.27;95.82;40269.72;5063795;28;20032;-72
2024/01/22 04:33:50;;;;;;;1.80;1.40;;;;;;;-146.27;96.57;40323.41;5068300;28;20036;-72
2024/01/22 04:36:16;;;;;;;2.45;1.40;;;;;;;-146.27;97.09;40317.44;5070339;28;20029;-72
2024/01/22 04:38:42;;;;;;;2.25;1.38;;;;;;;-146.27;96.34;40361.16;5069009;28;20107;-72
2024/01/22 04:41:07;;;;;;;1.60;1.20;;;;;;;-146.27;96.80;40325.38;5072024;28;20440;-73
2024/01/22 04:43:32;;;;;;;5.35;1.40;;;;;;;-146.27;95.45;40249.84;5068923;28;20473;-73
2024/01/22 04:45:58;;;;;;;1.92;1.02;;;;;;;-146.27;96.48;40309.47;5067177;28;20024;-72
2024/01/22 04:48:24;;;;;;;2.05;1.23;;;;;;;-146.27;96.23;40233.94;5069929;28;20024;-73
2024/01/22 04:50:49;;;;;;;1.73;1.42;;;;;;;-146.27;95.35;40218.03;5066457;28;20119;-72
2024/01/22 04:53:15;;;;;;;6.45;1.92;;;;;;;-146.27;96.06;40265.75;5069861;28;20107;-72
2024/01/22 04:55:40;;;;;;;1.67;1.33;;;;;;;-146.27;97.58;40293.56;5059983;28;20029;-73
2024/01/22 04:58:06;;;;;;;3.72;1.42;;;;;;;-146.27;98.55;40369.09;5070010;28;20078;-73
2024/01/22 05:00:31;;;;;;;3.30;1.48;;;;;;;-146.27;97.45;40267.75;5060551;28;20459;-72
2024/01/22 05:02:57;;;;;;;2.88;1.70;;;;;;;-146.27;97.78;40301.53;5066348;28;20039;-72
2024/01/22 05:05:22;;;;;;;3.75;1.90;;;;;;;-146.27;98.05;40271.72;5070510;28;20028;-72
2024/01/22 05:07:47;;;;;;;2.38;1.88;;;;;;;-146.27;98.68;40297.56;5069743;28;20059;-72
2024/01/22 05:10:14;;;;;;;3.90;2.17;;;;;;;-146.27;98.41;40309.47;5067943;28;20048;-72
2024/01/22 05:12:42;;;;;;;4.85;2.50;;;;;;;-146.27;98.60;40228.00;5071232;28;20028;-72
2024/01/22 05:15:10;;;;;;;5.10;2.80;;;;;;;-146.27;99.05;40235.94;5068055;28;20081;-73
2024/01/22 05:17:35;;;;;;;7.38;3.00;;;;;;;-146.27;98.23;40082.91;5068897;28;20388;-73
2024/01/22 05:20:01;;;;;;;9.70;3.30;;;;;;;-146.27;98.55;40220.03;5067491;28;20024;-72
2024/01/22 05:22:26;;;;;;;8.77;3.25;;;;;;;-146.27;98.33;40182.28;5070924;28;20027;-73
2024/01/22 05:24:53;;;;;;;7.70;2.70;;;;;;;-146.27;97.19;40063.03;5068084;28;20132;-71
2024/01/22 05:27:18;;;;;;;13.20;2.53;;;;;;;-146.27;96.38;40045.13;5062791;28;20029;-73
2024/01/22 05:29:44;;;;;;;7.60;2.50;;;;;;;-146.27;97.30;40082.91;5067616;28;20453;-72
2024/01/22 05:32:10;;;;;;;14.25;2.33;;;;;;;-146.27;97.40;40130.59;5059690;28;20069;-72
2024/01/22 05:34:35;;;;;;;4.95;1.80;;;;;;;-146.27;96.30;40023.25;5069274;28;20522;-72
2024/01/22 05:37:01;;;;;;;18.00;2.38;;;;;;;-146.27;95.23;40021.28;5065907;28;20051;-72
2024/01/22 05:39:27;;;;;;;10.40;2.25;;;;;;;-146.27;95.74;40076.94;5067702;28;20028;-72
2024/01/22 05:41:53;;;;;;;13.57;1.95;;;;;;;-146.27;94.76;39995.44;5068917;28;20079;-72
2024/01/22 05:44:19;;;;;;;17.05;2.22;;;;;;;-146.27;94.38;39989.47;5069263;28;20388;-71
2024/01/22 05:46:44;;;;;;;15.40;2.60;;;;;;;-146.27;93.63;39977.56;5068851;28;20062;-72
2024/01/22 05:49:10;;;;;;;15.25;2.30;;;;;;;-146.27;92.52;40051.09;5069967;28;20476;-73
2024/01/22 05:51:36;;;;;;;24.25;3.97;;;;;;;-146.27;92.14;40063.03;5070359;28;20033;-72
2024/01/22 05:54:02;;;;;;;25.10;3.50;;;;;;;-146.27;91.45;40035.19;5069282;28;20029;-72
2024/01/22 05:56:27;;;;;;;19.58;3.00;;;;;;;-146.27;90.77;40088.84;5068286;28;20466;-72
2024/01/22 05:58:53;;;;;;;12.60;2.65;;;;;;;-146.27;90.61;40086.88;5069510;28;20602;-72
2024/01/22 06:01:24;;;;;;;24.13;3.50;;;;;;;-146.27;90.12;40074.94;5070583;28;20397;-71
2024/01/22 06:03:50;;;;;;;13.82;2.88;;;;;;;-146.27;89.94;40142.53;5070506;28;20032;-73
2024/01/22 06:06:16;;;;;;;22.95;3.60;;;;;;;-146.27;89.19;40035.19;5069956;28;20069;-72
2024/01/22 06:08:42;;;;;;;21.10;3.30;;;;;;;-146.27;88.59;40126.63;5069013;28;20388;-72
2024/01/22 06:11:08;;;;;;;29.73;4.25;;;;;;;-146.27;89.00;40116.69;5070175;28;20381;-71
2024/01/22 06:13:38;;;;;;;29.42;4.88;;;;;;;-146.27;88.65;40186.25;5069964;28;20016;-72
2024/01/22 06:16:07;;;;;;;18.95;2.58;;;;;;;-146.27;87.64;40184.25;5067923;28;20032;-72
2024/01/22 06:18:36;;;;;;;30.80;4.60;;;;;;;-146.27;88.54;40176.31;5069339;28;20047;-72
2024/01/22 06:21:03;;;;;;;21.08;3.67;;;;;;;-146.27;88.47;40208.09;5070139;28;20017;-72
2024/01/22 06:23:28;;;;;;;23.40;3.22;;;;;;;-146.27;88.48;40194.19;5069550;28;20029;-72
2024/01/22 06:25:54;;;;;;;15.60;3.28;;;;;;;-146.27;88.59;40237.94;5068844;28;20102;-72
2024/01/22 06:28:19;;;;;;;20.35;4.63;;;;;;;-146.27;88.51;40170.34;5068554;28;20036;-72
2024/01/22 06:30:44;;;;;;;25.42;3.75;;;;;;;-146.27;87.43;40166.38;5070270;28;20082;-72
2024/01/22 06:33:10;;;;;;;31.73;4.95;;;;;;;-146.27;88.00;40166.38;5068669;28;20055;-72
2024/01/22 06:35:36;;;;;;;41.67;5.40;;;;;;;-146.27;87.85;40174.31;5069793;28;20059;-72
2024/01/22 06:38:01;;;;;;;28.13;4.57;;;;;;;-146.27;87.59;40164.38;5069683;28;20039;-72
2024/01/22 06:40:29;;;;;;;27.35;4.47;;;;;;;-146.27;87.74;40172.34;5068692;28;20128;-72
2024/01/22 06:42:54;;;;;;;30.77;5.93;;;;;;;-146.27;87.44;40128.59;5069307;28;20036;-72
2024/01/22 06:45:19;;;;;;;23.17;4.50;;;;;;;-146.27;88.06;40251.84;5069202;28;20404;-71
2024/01/22 06:47:45;;;;;;;36.22;4.80;;;;;;;-146.27;88.09;40128.59;5068948;28;20048;-72
2024/01/22 06:50:10;;;;;;;34.65;5.68;;;;;;;-146.27;87.56;40170.34;5069072;28;20035;-71
2024/01/22 06:52:36;;;;;;;43.63;5.70;;;;;;;-146.27;88.11;40194.19;5070392;28;20028;-72
2024/01/22 06:55:02;;;;;;;36.95;6.43;;;;;;;-146.27;88.24;40212.09;5071615;28;20024;-72
2024/01/22 06:57:28;;;;;;;50.58;7.07;;;;;;;-146.27;87.86;40194.19;5073774;28;20361;-71
2024/01/22 06:59:55;;;;;;;41.30;5.72;;;;;;;-146.27;88.40;40210.09;5074470;28;21058;-72
2024/01/22 07:02:21;;;;;;;50.13;8.48;;;;;;;-146.27;87.98;40182.28;5067559;28;20538;-71
2024/01/22 07:04:46;;;;;;;40.28;5.40;;;;;;;-146.27;87.60;40154.44;5065029;28;20021;-72
2024/01/22 07:07:13;;;;;;;44.95;5.70;;;;;;;-146.27;88.00;40196.19;5062043;28;20503;-72
2024/01/22 07:09:38;;;;;;;59.30;6.88;;;;;;;-146.27;87.07;40126.63;5060635;28;20041;-72
2024/01/22 07:12:04;;;;;;;43.60;6.20;;;;;;;-146.27;86.36;40110.72;5063881;28;20025;-72
2024/01/22 07:14:30;;;;;;;26.63;4.82;;;;;;;-146.27;89.56;40295.56;5061593;28;20037;-73
2024/01/22 07:16:55;;;;;;;38.67;5.43;;;;;;;-146.27;88.66;40257.81;5061466;28;20435;-72
2024/01/22 07:19:21;;;;;;;32.47;6.03;;;;;;;-146.27;88.34;40253.81;5058953;28;20024;-71
2024/01/22 07:21:47;;;;;;;45.80;6.28;;;;;;;-146.27;87.91;40162.41;5069185;28;20051;-72
2024/01/22 07:24:12;;;;;;;49.72;6.40;;;;;;;-146.27;88.02;40182.28;5068713;28;20395;-73
2024/01/22 07:26:37;;;;;;;41.55;6.13;;;;;;;-146.27;88.56;40194.19;5069395;28;20500;-72
2024/01/22 07:29:04;;;;;;;36.45;6.47;;;;;;;-146.27;89.12;40206.13;5068780;28;20397;-72
2024/01/22 07:31:29;;;;;;;46.35;6.70;;;;;;;-146.27;88.35;40124.63;5069656;28;20113;-72
2024/01/22 07:33:55;;;;;;;37.72;5.65;;;;;;;-146.27;88.39;40204.13;5068717;28;20480;-72
2024/01/22 07:36:20;;;;;;;41.40;5.53;;;;;;;-146.27;89.09;40170.34;5066229;28;20123;-72
2024/01/22 07:38:47;;;;;;;38.63;5.32;;;;;;;-146.27;90.92;40168.34;5068103;28;20119;-72
2024/01/22 07:41:13;;;;;;;42.92;5.68;;;;;;;-146.27;93.48;40198.16;5082882;28;20031;-73
2024/01/22 07:43:39;;;;;;;36.97;5.88;;;;;;;-146.27;92.87;40146.50;5089711;28;20035;-73
2024/01/22 07:46:04;;;;;;;41.92;6.30;;;;;;;-146.27;92.86;40136.56;5088528;28;20032;-73
2024/01/22 07:48:30;;;;;;;36.78;5.00;;;;;;;-146.27;94.37;40281.66;5088621;28;20020;-74
2024/01/22 07:50:55;;;;;;;34.30;4.88;;;;;;;-146.27;94.27;40285.63;5066788;28;20052;-73
2024/01/22 07:53:20;;;;;;;46.83;6.25;;;;;;;-146.27;93.82;40206.13;5068907;28;20063;-73
2024/01/22 07:55:47;;;;;;;40.28;5.95;;;;;;;-146.27;93.39;40323.41;5067461;28;20067;-73
2024/01/22 07:58:14;;;;;;;38.60;5.13;;;;;;;-146.27;93.15;40309.47;5069007;28;20024;-73
2024/01/22 08:00:40;;;;;;;49.50;5.43;;;;;;;-146.27;92.78;40198.16;5070556;28;20033;-73
2024/01/22 08:03:05;;;;;;;43.50;6.50;;;;;;;-146.27;92.81;40247.88;5070996;28;20021;-73
2024/01/22 08:05:30;;;;;;;41.50;5.82;;;;;;;-146.27;93.44;40281.66;5062675;28;20077;-72
2024/01/22 08:07:56;;;;;;;51.65;6.45;;;;;;;-146.27;93.64;40293.56;5072454;28;20099;-73
2024/01/22 08:10:22;;;;;;;45.50;6.18;;;;;;;-146.27;92.66;40279.66;5064484;28;20025;-74
2024/01/22 08:12:47;;;;;;;43.67;6.68;;;;;;;-146.27;92.69;40253.81;5066799;28;20020;-74
2024/01/22 08:15:15;;;;;;;52.42;7.88;;;;;;;-146.27;92.13;40333.34;5071370;28;20413;-73
2024/01/22 08:17:42;;;;;;;45.88;6.80;;;;;;;-146.27;91.66;40341.28;5071485;28;20047;-74
2024/01/22 08:20:08;;;;;;;42.03;6.50;;;;;;;-146.27;91.55;40440.66;5069923;28;20035;-74
2024/01/22 08:22:36;;;;;;;45.17;6.32;;;;;;;-146.27;91.12;40432.72;5062987;28;20017;-73
2024/01/22 08:25:03;;;;;;;45.60;6.32;;;;;;;-146.27;89.70;40432.72;5064652;28;20413;-73
2024/01/22 08:27:28;;;;;;;49.58;7.25;;;;;;;-146.27;89.89;40448.63;5065790;28;20443;-73
2024/01/22 08:29:54;;;;;;;39.80;7.25;;;;;;;-146.27;90.60;40544.03;5059685;28;20135;-73
2024/01/22 08:32:19;;;;;;;49.47;6.50;;;;;;;-146.27;89.72;40524.16;5072318;28;20396;-73
2024/01/22 08:34:45;;;;;;;53.08;6.38;;;;;;;-146.27;88.40;40408.88;5072709;28;20020;-74
2024/01/22 08:37:10;;;;;;;38.95;7.38;;;;;;;-146.27;89.08;40563.91;5071527;28;20420;-72
2024/01/22 08:39:35;;;;;;;52.53;7.75;;;;;;;-146.27;89.00;40571.84;5069701;28;20020;-74
2024/01/22 08:42:02;;;;;;;55.58;6.93;;;;;;;-146.27;88.57;40595.72;5066022;28;20112;-71
2024/01/22 08:44:27;;;;;;;56.42;6.97;;;;;;;-146.27;88.33;40605.66;5064129;28;20107;-72
2024/01/22 08:46:52;;;;;;;51.92;7.15;;;;;;;-146.27;88.17;40711.00;5075002;28;20116;-72
2024/01/22 08:49:18;;;;;;;51.45;7.18;;;;;;;-146.27;87.88;40711.00;5063911;28;20108;-73
2024/01/22 08:51:43;;;;;;;47.65;6.60;;;;;;;-146.27;88.37;40782.56;5055448;28;20024;-73
2024/01/22 08:54:08;;;;;;;46.13;7.13;;;;;;;-146.27;89.81;40774.63;5070980;28;20569;-72
2024/01/22 08:56:34;;;;;;;55.80;7.75;;;;;;;-146.27;89.68;40746.78;5069860;28;20111;-72
2024/01/22 08:59:00;;;;;;;37.05;5.78;;;;;;;-146.27;91.37;40740.81;5062944;28;20021;-72
2024/01/22 09:01:25;;;;;;;51.80;7.05;;;;;;;-146.27;92.01;40822.31;5069662;28;20491;-72
2024/01/22 09:03:50;;;;;;;55.22;6.57;;;;;;;-146.27;92.59;40822.31;5070388;28;20150;-73
2024/01/22 09:06:16;;;;;;;46.35;6.93;;;;;;;-146.27;93.12;40870.03;5067956;28;20020;-70
2024/01/22 09:08:42;;;;;;;55.90;6.78;;;;;;;-146.27;92.42;40836.25;5071754;28;20030;-73
2024/01/22 09:11:08;;;;;;;43.70;6.60;;;;;;;-146.27;91.98;40961.47;5071503;28;20383;-72
2024/01/22 09:13:33;;;;;;;42.90;7.15;;;;;;;-146.27;91.09;40905.81;5071557;28;20050;-71
2024/01/22 09:15:59;;;;;;;54.65;6.95;;;;;;;-146.27;91.69;40933.66;5070240;28;20032;-73
2024/01/22 09:18:28;;;;;;;50.47;6.32;;;;;;;-146.27;90.98;40961.47;5070069;28;20025;-73
2024/01/22 09:20:54;;;;;;;42.33;5.90;;;;;;;-146.27;91.47;41164.25;5071378;28;20024;-72
2024/01/22 09:23:21;;;;;;;45.47;7.05;;;;;;;-146.27;89.92;41110.59;5071283;28;20108;-72
2024/01/22 09:25:50;;;;;;;43.13;7.28;;;;;;;-146.27;90.13;41239.81;5069987;28;20083;-73
2024/01/22 09:28:20;;;;;;;35.85;5.85;;;;;;;-146.27;88.54;41120.53;5090602;28;20577;-73
2024/01/22 09:30:46;;;;;;;35.25;5.30;;;;;;;-146.27;88.66;41297.47;5086218;28;20039;-73
2024/01/22 09:33:11;;;;;;;49.67;6.82;;;;;;;-146.27;88.97;41327.28;5071396;28;20377;-72
2024/01/22 09:35:40;;;;;;;31.42;4.45;;;;;;;-146.27;88.56;41325.31;5071240;28;20056;-73
2024/01/22 09:38:06;;;;;;;23.05;3.53;;;;;;;-146.27;88.20;41432.66;5071166;28;20499;-72
2024/01/22 09:40:35;;;;;;;31.55;5.10;;;;;;;-146.27;87.59;41414.78;5071100;28;20021;-71
2024/01/22 09:43:04;;;;;;;28.52;3.50;;;;;;;-146.27;87.89;41514.19;5071127;28;20536;-72
2024/01/22 09:45:30;;;;;;;21.90;3.42;;;;;;;-146.27;87.81;41553.94;5070993;28;20050;-71
2024/01/22 09:47:56;;;;;;;29.25;4.40;;;;;;;-146.27;86.97;41466.47;5083155;28;20031;-71
2024/01/22 09:50:22;;;;;;;33.78;4.65;;;;;;;-146.27;87.13;41653.38;5091260;28;20028;-72
2024/01/22 09:52:51;;;;;;;26.83;2.60;;;;;;;-146.27;85.97;41665.28;5090985;28;20024;-72
2024/01/22 09:55:17;;;;;;;22.27;4.07;;;;;;;-146.27;85.97;41707.06;5091047;28;20480;-72
2024/01/22 09:57:44;;;;;;;30.15;3.13;;;;;;;-146.27;86.26;41848.22;5074563;28;20089;-73
2024/01/22 10:00:13;;;;;;;26.38;2.72;;;;;;;-146.27;85.25;41899.94;5070075;28;20082;-71
2024/01/22 10:02:40;;;;;;;17.98;3.10;;;;;;;-146.27;83.94;41806.47;5070647;28;20392;-71
2024/01/22 10:05:07;;;;;;;14.60;3.35;;;;;;;-146.27;83.91;41856.19;5070624;28;20028;-70
2024/01/22 10:07:33;;;;;;;29.23;4.38;;;;;;;-146.27;83.34;41848.22;5070613;28;20078;-72
2024/01/22 10:10:01;;;;;;;18.17;3.53;;;;;;;-146.27;82.44;41880.03;5070659;28;20024;-71
2024/01/22 10:12:26;;;;;;;25.83;3.08;;;;;;;-146.27;81.54;41876.06;5070646;28;20472;-72
2024/01/22 10:14:52;;;;;;;18.88;4.18;;;;;;;-146.27;80.54;41830.34;5070683;28;20026;-72
2024/01/22 10:17:18;;;;;;;28.08;4.15;;;;;;;-146.27;80.10;41933.72;5077566;28;20107;-72
2024/01/22 10:19:45;;;;;;;30.75;3.38;;;;;;;-146.27;79.35;41856.19;5063794;28;20029;-73
2024/01/22 10:22:12;;;;;;;25.75;3.38;;;;;;;-146.27;78.76;41969.53;5069725;28;20028;-73
2024/01/22 10:24:39;;;;;;;24.40;3.15;;;;;;;-146.27;77.82;41899.94;5069419;28;20108;-71
2024/01/22 10:27:15;;;;;;;28.63;3.40;;;;;;;-146.27;77.45;41975.50;5069772;28;20090;-72
2024/01/22 10:29:44;;;;;;;24.30;3.30;;;;;;;-146.27;77.21;42108.72;5068704;28;20436;-71
2024/01/22 10:32:09;;;;;;;25.05;3.90;;;;;;;-146.27;76.17;42072.94;5070100;28;20496;-70
2024/01/22 10:34:43;;;;;;;24.90;3.67;;;;;;;-146.27;75.62;42138.53;5070168;28;20098;-70
2024/01/22 10:37:13;;;;;;;32.17;3.17;;;;;;;-146.27;75.24;42098.78;5063726;28;20671;-71
2024/01/22 10:39:41;;;;;;;13.95;2.90;;;;;;;-146.27;75.05;42182.28;5068801;28;20552;-72
2024/01/22 10:42:06;;;;;;;28.77;5.07;;;;;;;-146.27;74.28;42122.63;5061462;28;20036;-71
2024/01/22 10:44:32;;;;;;;23.15;3.42;;;;;;;-146.27;73.01;42249.91;5068331;28;20028;-71
2024/01/22 10:47:01;;;;;;;22.75;3.03;;;;;;;-146.27;72.30;42307.56;5068941;28;20032;-72
2024/01/22 10:49:27;;;;;;;18.77;3.50;;;;;;;-146.27;71.75;42305.59;5069289;28;20072;-75
2024/01/22 10:51:54;;;;;;;26.23;4.13;;;;;;;-146.27;70.45;42305.59;5070068;28;20489;-72
2024/01/22 10:54:20;;;;;;;24.15;3.83;;;;;;;-146.27;69.41;42546.22;5067393;28;20112;-72
2024/01/22 10:56:53;;;;;;;30.80;4.43;;;;;;;-146.27;69.80;42494.53;5072325;28;20120;-72
2024/01/22 10:59:21;;;;;;;24.58;3.22;;;;;;;-146.27;69.05;42615.84;5074491;28;20031;-72
2024/01/22 11:01:48;;;;;;;24.83;3.75;;;;;;;-146.27;67.91;42580.03;5069970;28;20052;-72
2024/01/22 11:04:20;;;;;;;21.33;4.03;;;;;;;-146.27;66.47;42695.38;5070022;28;20094;-72
2024/01/22 11:06:47;;;;;;;20.38;3.80;;;;;;;-146.27;67.05;42838.59;5066834;28;20029;-72